Flight Track Log - Related Links

Times and Time Zones

All times are in EDT time to prevent confusion due to time zone crossing. See the UAL1129 flight status page for this flight to view local times or setup timezone preferences in your user account.

Time Position Orientation Groundspeed Altitude Reporting Facility
EDT Latitude Longitude Course Direction KTS MPH feet Rate Location/Type
Thu 02:04:50 AM 47.4389 -122.3080 180° South 181 208 500  Level FlightAware ADS-B
Thu 02:04:59 AM 47.4313 -122.3080 180° South 179 206 900 2,667 Climbing FlightAware ADS-B
Thu 02:05:08 AM 47.4232 -122.3080 180° South 184 212 1,300 1,800 Climbing FlightAware ADS-B
Thu 02:05:19 AM 47.4144 -122.3080 180° South 193 222 1,500 1,385 Climbing FlightAware ADS-B
Thu 02:05:34 AM 47.3999 -122.3090 183° South 213 245 1,900 1,714 Climbing FlightAware ADS-B
Thu 02:05:47 AM 47.3863 -122.3090 180° South 225 259 2,300 2,400 Climbing FlightAware ADS-B
Thu 02:05:59 AM 47.3741 -122.3090 180° South 225 259 2,900 3,000 Climbing FlightAware ADS-B
Thu 02:06:09 AM 47.3630 -122.3090 180° South 227 261 3,400 2,727 Climbing FlightAware ADS-B
Thu 02:06:21 AM 47.3510 -122.3090 180° South 230 265 3,900 2,250 Climbing FlightAware ADS-B
Thu 02:06:25 AM 47.3464 -122.3080 172° South 236 272 4,000 1,714 Climbing FlightAware ADS-B
Thu 02:06:28 AM 47.3426 -122.3070 170° South 242 278 4,100 857 Climbing FlightAware ADS-B
Thu 02:06:32 AM 47.3386 -122.3060 170° South 248 285 4,100 1,500 Level FlightAware ADS-B
Thu 02:06:36 AM 47.3343 -122.3050 171° South 252 290 4,300 2,571 Climbing FlightAware ADS-B
Thu 02:06:39 AM 47.3308 -122.3030 159° South 254 292 4,400 2,667 Climbing FlightAware ADS-B
Thu 02:06:54 AM 47.3137 -122.2950 162° South 260 299 5,100 2,600 Climbing FlightAware ADS-B
Thu 02:07:09 AM 47.2960 -122.2870 163° South 270 311 5,700 2,200 Climbing FlightAware ADS-B
Thu 02:07:24 AM 47.2773 -122.2790 164° South 280 322 6,200 2,200 Climbing FlightAware ADS-B
Thu 02:07:39 AM 47.2580 -122.2700 162° South 288 331 6,800 2,690 Climbing FlightAware ADS-B
Thu 02:07:53 AM 47.2400 -122.2620 163° South 292 336 7,500 2,800 Climbing FlightAware ADS-B
Thu 02:08:09 AM 47.2199 -122.2530 163° South 294 338 8,200 2,903 Climbing FlightAware ADS-B
Thu 02:08:24 AM 47.2000 -122.2450 165° South 292 336 9,000 3,200 Climbing FlightAware ADS-B
Thu 02:08:39 AM 47.1803 -122.2360 163° South 293 337 9,800 2,087 Climbing FlightAware ADS-B
Thu 02:09:10 AM 47.1393 -122.2180 163° South 318 366 10,600 1,279 Climbing FlightAware ADS-B
Thu 02:09:40 AM 47.0937 -122.1980 163° South 354 407 11,100 1,475 Climbing FlightAware ADS-B
Thu 02:10:11 AM 47.0443 -122.1760 163° South 371 427 12,100 2,459 Climbing FlightAware ADS-B
Thu 02:10:41 AM 46.9953 -122.1540 163° South 370 426 13,600 2,600 Climbing FlightAware ADS-B
Thu 02:11:11 AM 46.9452 -122.1320 163° South 376 433 14,700 2,400 Climbing FlightAware ADS-B
Thu 02:11:41 AM 46.8946 -122.1090 163° South 379 436 16,000 2,361 Climbing FlightAware ADS-B
Thu 02:12:12 AM 46.8432 -122.0870 164° South 382 440 17,100 2,192 Climbing FlightAware ADS-B
Thu 02:12:33 AM 46.8074 -122.0710 163° South 385 443 17,900 2,200 Climbing FlightAware ADS-B
Thu 02:12:42 AM 46.7927 -122.0620 157° South 391 450 18,200 1,875 Climbing FlightAware ADS-B
Thu 02:12:49 AM 46.7810 -122.0540 155° Southeast 396 456 18,400 1,875 Climbing FlightAware ADS-B
Thu 02:12:58 AM 46.7666 -122.0410 148° Southeast 402 463 18,700 1,846 Climbing FlightAware ADS-B
Thu 02:13:28 AM 46.7214 -121.9900 142° Southeast 413 475 19,600 1,700 Climbing FlightAware ADS-B
Thu 02:13:58 AM 46.6751 -121.9380 142° Southeast 419 482 20,400 1,731 Climbing FlightAware ADS-B
Thu 02:14:20 AM 46.6425 -121.9020 143° Southeast 421 484 21,100 1,846 Climbing FlightAware ADS-B
Thu 02:14:50 AM 46.5961 -121.8480 141° Southeast 425 489 22,000 1,600 Climbing FlightAware ADS-B
Thu 02:15:20 AM 46.5488 -121.7940 142° Southeast 431 496 22,700 1,452 Climbing FlightAware ADS-B
Thu 02:15:52 AM 46.4994 -121.7370 142° Southeast 437 503 23,500 1,548 Climbing FlightAware ADS-B
Thu 02:16:22 AM 46.4505 -121.6810 142° Southeast 439 505 24,300 1,355 Climbing FlightAware ADS-B
Thu 02:16:54 AM 46.4008 -121.6250 142° Southeast 443 510 24,900 1,161 Climbing FlightAware ADS-B
Thu 02:17:24 AM 46.3518 -121.5690 142° Southeast 450 518 25,500 1,200 Climbing FlightAware ADS-B
Thu 02:17:54 AM 46.3020 -121.5130 142° Southeast 454 522 26,100 1,180 Climbing FlightAware ADS-B
Thu 02:18:25 AM 46.2503 -121.4540 142° Southeast 457 526 26,700 1,258 Climbing FlightAware ADS-B
Thu 02:18:56 AM 46.1990 -121.3960 142° Southeast 459 528 27,400 1,377 Climbing FlightAware ADS-B
Thu 02:19:26 AM 46.1483 -121.3390 142° Southeast 461 531 28,100 1,286 Climbing FlightAware ADS-B
Thu 02:19:38 AM 46.1281 -121.3150 141° Southeast 464 534 28,300 1,000 Climbing FlightAware ADS-B
Thu 02:19:44 AM 46.1187 -121.3010 134° Southeast 467 537 28,400 1,059 Climbing FlightAware ADS-B
Thu 02:19:55 AM 46.1046 -121.2780 131° Southeast 471 542 28,600 1,500 Climbing FlightAware ADS-B
Thu 02:20:40 AM 46.0530 -121.1550 121° Southeast 472 543 29,800 1,348 Climbing FlightAware ADS-B
Thu 02:21:24 AM 46.0050 -121.0350 120° Southeast 473 544 30,600 1,071 Climbing FlightAware ADS-B
Thu 02:22:04 AM 45.9600 -120.9260 121° Southeast 474 545 31,300 975 Climbing FlightAware ADS-B
Thu 02:22:44 AM 45.9170 -120.8180 120° Southeast 474 545 31,900 847 Climbing FlightAware ADS-B
Thu 02:23:29 AM 45.8710 -120.7040 120° Southeast 475 547 32,500 929 Climbing FlightAware ADS-B
Thu 02:24:08 AM 45.8260 -120.5910 120° Southeast 472 543 33,200 1,012 Climbing FlightAware ADS-B
Thu 02:24:52 AM 45.7760 -120.4690 120° Southeast 471 542 33,900 857 Climbing FlightAware ADS-B
Thu 02:25:32 AM 45.7330 -120.3630 120° Southeast 470 541 34,400 786 Climbing FlightAware ADS-B
Thu 02:26:16 AM 45.6860 -120.2470 120° Southeast 467 537 35,000 429 Climbing FlightAware ADS-B
Thu 02:26:56 AM 45.6420 -120.1400 120° Southeast 468 539 35,000  Level FlightAware ADS-B
Thu 02:27:40 AM 45.5940 -120.0210 120° Southeast 469 540 35,000  Level FlightAware ADS-B
Thu 02:28:20 AM 45.5510 -119.9170 121° Southeast 468 539 35,000  Level FlightAware ADS-B
Thu 02:29:06 AM 45.5000 -119.7940 121° Southeast 466 536 35,000  Level FlightAware ADS-B
Thu 02:29:45 AM 45.4580 -119.6940 121° Southeast 466 536 35,000  Level FlightAware ADS-B
Thu 02:29:53 AM 45.4500 -119.6740 120° Southeast 466 536 35,000  Level FlightAware ADS-B
Thu 02:31:06 AM 45.3850 -119.5190 121° Southeast 464 534 35,000  Level FlightAware ADS-B
Thu 02:31:56 AM 45.3130 -119.3460 121° Southeast 465 535 35,000  Level FlightAware ADS-B
Thu 02:32:35 AM 45.2700 -119.2460 121° Southeast 465 535 35,000  Level FlightAware ADS-B
Thu 02:33:16 AM 45.2250 -119.1400 121° Southeast 465 535 35,000  Level FlightAware ADS-B
Thu 02:34:01 AM 45.1760 -119.0230 121° Southeast 463 533 35,000  Level FlightAware ADS-B
Thu 02:34:41 AM 45.1320 -118.9200 121° Southeast 463 533 35,000  Level FlightAware ADS-B
Thu 02:35:24 AM 45.0840 -118.8080 121° Southeast 463 533 35,000  Level FlightAware ADS-B
Thu 02:36:05 AM 45.0380 -118.7020 122° Southeast 464 534 35,000  Level FlightAware ADS-B
Thu 02:36:49 AM 44.9890 -118.5880 121° Southeast 465 535 35,000  Level FlightAware ADS-B
Thu 02:37:28 AM 44.9450 -118.4870 122° Southeast 463 533 35,000  Level FlightAware ADS-B
Thu 02:38:08 AM 44.9000 -118.3850 122° Southeast 461 531 35,000  Level FlightAware ADS-B
Thu 02:38:52 AM 44.8510 -118.2720 121° Southeast 461 531 35,000  Level FlightAware ADS-B
Thu 02:39:36 AM 44.8010 -118.1590 122° Southeast 463 533 35,000  Level FlightAware ADS-B
Thu 02:40:16 AM 44.7560 -118.0560 122° Southeast 465 535 35,000  Level FlightAware ADS-B
Thu 02:41:01 AM 44.7070 -117.9430 121° Southeast 465 535 35,000  Level FlightAware ADS-B
Thu 02:41:37 AM 44.6650 -117.8490 122° Southeast 467 537 35,000  Level FlightAware ADS-B
Thu 02:42:17 AM 44.6200 -117.7470 122° Southeast 467 537 35,000  Level FlightAware ADS-B
Thu 02:42:59 AM 44.5710 -117.6390 122° Southeast 466 536 35,000  Level FlightAware ADS-B
Thu 02:43:33 AM 44.5310 -117.5500 122° Southeast 467 537 35,000  Level FlightAware ADS-B
Thu 02:44:17 AM 44.4820 -117.4390 122° Southeast 465 535 35,000  Level FlightAware ADS-B
Thu 02:44:52 AM 44.4420 -117.3520 123° Southeast 465 535 35,000  Level FlightAware ADS-B
Thu 02:45:53 AM 44.3720 -117.1970 122° Southeast 464 534 35,000  Level FlightAware ADS-B
Thu 02:46:33 AM 44.3250 -117.0930 122° Southeast 465 535 35,000  Level FlightAware ADS-B
Thu 02:47:15 AM 44.2770 -116.9880 123° Southeast 467 537 35,000  Level FlightAware ADS-B
Thu 02:48:01 AM 44.2230 -116.8710 123° Southeast 468 539 35,000  Level FlightAware ADS-B
Thu 02:48:37 AM 44.1810 -116.7790 122° Southeast 469 540 35,000  Level FlightAware ADS-B
Thu 02:49:23 AM 44.1280 -116.6650 123° Southeast 471 542 35,000  Level FlightAware ADS-B
Thu 02:50:06 AM 44.0770 -116.5540 123° Southeast 474 545 35,000  Level FlightAware ADS-B
Thu 02:50:46 AM 44.0290 -116.4530 123° Southeast 477 549 35,000  Level FlightAware ADS-B
Thu 02:51:28 AM 43.9790 -116.3440 122° Southeast 480 552 35,000  Level FlightAware ADS-B
Thu 02:52:08 AM 43.9310 -116.2420 123° Southeast 479 551 35,000  Level FlightAware ADS-B
Thu 02:52:51 AM 43.8790 -116.1320 123° Southeast 479 551 35,000  Level FlightAware ADS-B
Thu 02:53:36 AM 43.8230 -116.0130 123° Southeast 481 554 35,000  Level FlightAware ADS-B
Thu 02:54:15 AM 43.7760 -115.9150 124° Southeast 480 552 35,000  Level FlightAware ADS-B
Thu 02:54:59 AM 43.7230 -115.8020 123° Southeast 482 555 35,000  Level FlightAware ADS-B
Thu 02:55:33 AM 43.6800 -115.7130 124° Southeast 482 555 35,000  Level FlightAware ADS-B
Thu 02:56:17 AM 43.6270 -115.6010 123° Southeast 479 551 35,000  Level FlightAware ADS-B
Thu 02:56:57 AM 43.5780 -115.5000 124° Southeast 479 551 35,000  Level FlightAware ADS-B
Thu 02:57:37 AM 43.5290 -115.3990 124° Southeast 478 550 35,000  Level FlightAware ADS-B
Thu 02:58:22 AM 43.4740 -115.2850 124° Southeast 478 550 35,000  Level FlightAware ADS-B
Thu 02:59:01 AM 43.4260 -115.1860 124° Southeast 478 550 35,000  Level FlightAware ADS-B
Thu 02:59:45 AM 43.3720 -115.0750 124° Southeast 480 552 35,000  Level FlightAware ADS-B
Thu 02:59:55 AM 43.3590 -115.0490 125° Southeast 480 552 35,000  Level FlightAware ADS-B
Thu 03:01:01 AM 43.2770 -114.8810 124° Southeast 481 554 35,000  Level FlightAware ADS-B
Thu 03:01:41 AM 43.2280 -114.7820 124° Southeast 479 551 35,000  Level FlightAware ADS-B
Thu 03:02:27 AM 43.1700 -114.6660 124° Southeast 478 550 35,000  Level FlightAware ADS-B
Thu 03:03:07 AM 43.1220 -114.5670 124° Southeast 475 547 35,000  Level FlightAware ADS-B
Thu 03:03:49 AM 43.0700 -114.4630 124° Southeast 474 545 35,000  Level FlightAware ADS-B
Thu 03:04:31 AM 43.0180 -114.3600 125° Southeast 472 543 35,000  Level FlightAware ADS-B
Thu 03:05:07 AM 42.9730 -114.2710 125° Southeast 473 544 35,000  Level FlightAware ADS-B
Thu 03:05:57 AM 42.9110 -114.1470 124° Southeast 474 545 35,000  Level FlightAware ADS-B
Thu 03:06:37 AM 42.8620 -114.0500 125° Southeast 474 545 35,000  Level FlightAware ADS-B
Thu 03:07:18 AM 42.8150 -113.9560 124° Southeast 473 544 35,000  Level FlightAware ADS-B
Thu 03:08:01 AM 42.7570 -113.8430 125° Southeast 472 543 35,000  Level FlightAware ADS-B
Thu 03:08:42 AM 42.7070 -113.7450 125° Southeast 473 544 35,000  Level FlightAware ADS-B
Thu 03:09:27 AM 42.6500 -113.6340 125° Southeast 473 544 35,000  Level FlightAware ADS-B
Thu 03:10:07 AM 42.5990 -113.5350 125° Southeast 474 545 35,000  Level FlightAware ADS-B
Thu 03:10:49 AM 42.5470 -113.4340 125° Southeast 475 547 35,000  Level FlightAware ADS-B
Thu 03:11:31 AM 42.5010 -113.3420 124° Southeast 475 547 35,000  Level FlightAware ADS-B
Thu 03:12:10 AM 42.4450 -113.2380 126° Southeast 479 551 35,000  Level FlightAware ADS-B
Thu 03:13:03 AM 42.3840 -113.1190 125° Southeast 480 552 35,000  Level FlightAware ADS-B
Thu 03:13:41 AM 42.3280 -113.0130 126° Southeast 482 555 35,000  Level FlightAware ADS-B
Thu 03:14:15 AM 42.2845 -112.9300 125° Southeast 484 557 35,000  Level FlightAware ADS-B
Thu 03:14:59 AM 42.2272 -112.8210 125° Southeast 485 558 35,000  Level FlightAware ADS-B
Thu 03:15:42 AM 42.1940 -112.7580 125° Southeast 484 557 35,000  Level FlightAware ADS-B
Thu 03:16:06 AM 42.1406 -112.6570 125° Southeast 485 558 35,000  Level FlightAware ADS-B
Thu 03:16:43 AM 42.0927 -112.5670 126° Southeast 486 559 35,000  Level FlightAware ADS-B
Thu 03:17:14 AM 42.0515 -112.4890 125° Southeast 485 558 35,000  Level FlightAware ADS-B
Thu 03:17:57 AM 41.9963 -112.3850 126° Southeast 485 558 35,000  Level FlightAware ADS-B
Thu 03:18:28 AM 41.9554 -112.3090 126° Southeast 485 558 35,000  Level FlightAware ADS-B
Thu 03:19:06 AM 41.9049 -112.2150 126° Southeast 486 559 35,000  Level FlightAware ADS-B
Thu 03:19:56 AM 41.8390 -112.0930 126° Southeast 488 562 35,000  Level FlightAware ADS-B
Thu 03:20:09 AM 41.8217 -112.0610 126° Southeast 490 564 35,000  Level FlightAware ADS-B
Thu 03:20:40 AM 41.7811 -111.9860 126° Southeast 491 565 35,000  Level FlightAware ADS-B
Thu 03:21:16 AM 41.7331 -111.8980 126° Southeast 492 566 35,000  Level FlightAware ADS-B
Thu 03:21:48 AM 41.6900 -111.8180 126° Southeast 493 567 35,000  Level FlightAware ADS-B
Thu 03:22:33 AM 41.6293 -111.7070 126° Southeast 492 566 35,000  Level FlightAware ADS-B
Thu 03:23:04 AM 41.5889 -111.6330 126° Southeast 492 566 35,000  Level FlightAware ADS-B
Thu 03:23:34 AM 41.5483 -111.5590 126° Southeast 492 566 35,000  Level FlightAware ADS-B
Thu 03:24:04 AM 41.5080 -111.4860 126° Southeast 492 566 35,000  Level FlightAware ADS-B
Thu 03:24:35 AM 41.4668 -111.4110 126° Southeast 491 565 35,000  Level FlightAware ADS-B
Thu 03:25:05 AM 41.4259 -111.3370 126° Southeast 492 566 35,000  Level FlightAware ADS-B
Thu 03:25:40 AM 41.3789 -111.2520 126° Southeast 493 567 35,000  Level FlightAware ADS-B
Thu 03:26:10 AM 41.3379 -111.1790 127° Southeast 493 567 35,000  Level FlightAware ADS-B
Thu 03:26:40 AM 41.2967 -111.1050 127° Southeast 493 567 35,000  Level FlightAware ADS-B
Thu 03:27:10 AM 41.2560 -111.0320 127° Southeast 493 567 35,000  Level FlightAware ADS-B
Thu 03:27:41 AM 41.2148 -110.9580 126° Southeast 494 568 35,000  Level FlightAware ADS-B
Thu 03:28:11 AM 41.1737 -110.8850 127° Southeast 492 566 35,000  Level FlightAware ADS-B
Thu 03:28:41 AM 41.1325 -110.8120 127° Southeast 492 566 35,000  Level FlightAware ADS-B
Thu 03:29:12 AM 41.0910 -110.7380 127° Southeast 492 566 35,000  Level FlightAware ADS-B
Thu 03:29:46 AM 41.0445 -110.6560 127° Southeast 491 565 35,000  Level FlightAware ADS-B
Thu 03:30:16 AM 41.0032 -110.5830 127° Southeast 491 565 35,000  Level FlightAware ADS-B
Thu 03:30:46 AM 40.9623 -110.5110 127° Southeast 491 565 35,000  Level FlightAware ADS-B
Thu 03:31:17 AM 40.9212 -110.4390 127° Southeast 491 565 35,000  Level FlightAware ADS-B
Thu 03:31:47 AM 40.8798 -110.3670 127° Southeast 490 564 35,000  Level FlightAware ADS-B
Thu 03:32:17 AM 40.8389 -110.2950 127° Southeast 489 563 35,000  Level FlightAware ADS-B
Thu 03:33:08 AM 40.7730 -110.1790 127° Southeast 492 566 35,000  Level FlightAware ADS-B
Thu 03:33:48 AM 40.7180 -110.0830 127° Southeast 494 568 35,000  Level FlightAware ADS-B
Thu 03:34:29 AM 40.6590 -109.9810 127° Southeast 494 568 35,000  Level FlightAware ADS-B
Thu 03:35:20 AM 40.5880 -109.8590 127° Southeast 493 567 35,000  Level FlightAware ADS-B
Thu 03:36:00 AM 40.5340 -109.7670 128° Southeast 491 565 35,000  Level FlightAware ADS-B
Thu 03:36:41 AM 40.4770 -109.6680 127° Southeast 492 566 35,000  Level FlightAware ADS-B
Thu 03:37:16 AM 40.4290 -109.5860 128° Southeast 491 565 35,000  Level FlightAware ADS-B
Thu 03:37:57 AM 40.3720 -109.4900 128° Southeast 491 565 35,000  Level FlightAware ADS-B
Thu 03:38:42 AM 40.3100 -109.3850 128° Southeast 491 565 35,000  Level FlightAware ADS-B
Thu 03:39:25 AM 40.2520 -109.2870 128° Southeast 490 564 35,000  Level FlightAware ADS-B
Thu 03:40:05 AM 40.1940 -109.1890 128° Southeast 490 564 35,000  Level FlightAware ADS-B
Thu 03:40:47 AM 40.1370 -109.0930 128° Southeast 491 565 35,000  Level FlightAware ADS-B
Thu 03:41:27 AM 40.0820 -109.0000 128° Southeast 490 564 35,000  Level FlightAware ADS-B
Thu 03:42:09 AM 40.0220 -108.8990 128° Southeast 491 565 35,000  Level FlightAware ADS-B
Thu 03:42:49 AM 39.9660 -108.8060 128° Southeast 490 564 35,000  Level FlightAware ADS-B
Thu 03:43:29 AM 39.9100 -108.7120 128° Southeast 490 564 35,000  Level FlightAware ADS-B
Thu 03:44:10 AM 39.8520 -108.6170 128° Southeast 490 564 35,000  Level FlightAware ADS-B
Thu 03:44:45 AM 39.8040 -108.5370 128° Southeast 490 564 35,000  Level FlightAware ADS-B
Thu 03:44:54 AM 39.7920 -108.5180 129° Southeast 490 564 35,000  Level FlightAware ADS-B
Thu 03:45:59 AM 39.7190 -108.3980 128° Southeast 489 563 35,000  Level FlightAware ADS-B
Thu 03:46:43 AM 39.6370 -108.2630 128° Southeast 489 563 35,000  Level FlightAware ADS-B
Thu 03:47:25 AM 39.5780 -108.1670 129° Southeast 490 564 35,000  Level FlightAware ADS-B
Thu 03:48:09 AM 39.5170 -108.0670 128° Southeast 490 564 35,000  Level FlightAware ADS-B
Thu 03:48:49 AM 39.4610 -107.9760 129° Southeast 490 564 35,000  Level FlightAware ADS-B
Thu 03:49:33 AM 39.3990 -107.8750 128° Southeast 491 565 35,000  Level FlightAware ADS-B
Thu 03:50:09 AM 39.3470 -107.7920 129° Southeast 492 566 35,000  Level FlightAware ADS-B
Thu 03:50:49 AM 39.2870 -107.7030 131° Southeast 487 560 35,000  Level FlightAware ADS-B
Thu 03:51:29 AM 39.2170 -107.6340 122° Southeast 483 556 35,000  Level FlightAware ADS-B
Thu 03:51:42 AM 39.1920 -107.6090 142° Southeast 485 558 35,000  Level FlightAware ADS-B
Thu 03:52:12 AM 39.1380 -107.5560 143° Southeast 485 558 35,000  Level FlightAware ADS-B
Thu 03:52:43 AM 39.0839 -107.5040 143° Southeast 485 558 35,000  Level FlightAware ADS-B
Thu 03:53:22 AM 39.0126 -107.4360 143° Southeast 485 558 35,000  Level FlightAware ADS-B
Thu 03:53:53 AM 38.9569 -107.3830 143° Southeast 485 558 35,000  Level FlightAware ADS-B
Thu 03:54:24 AM 38.9014 -107.3300 143° Southeast 486 559 35,000  Level FlightAware ADS-B
Thu 03:54:54 AM 38.8472 -107.2790 144° Southeast 486 559 35,000  Level FlightAware ADS-B
Thu 03:55:24 AM 38.7926 -107.2270 143° Southeast 485 558 35,000  Level FlightAware ADS-B
Thu 03:55:55 AM 38.7363 -107.1740 144° Southeast 487 560 35,000  Level FlightAware ADS-B
Thu 03:56:25 AM 38.6818 -107.1230 144° Southeast 488 562 35,000  Level FlightAware ADS-B
Thu 03:56:57 AM 38.6240 -107.0690 144° Southeast 489 563 35,000  Level FlightAware ADS-B
Thu 03:57:27 AM 38.5689 -107.0170 144° Southeast 489 563 35,000  Level FlightAware ADS-B
Thu 03:57:57 AM 38.5137 -106.9660 144° Southeast 490 564 35,000  Level FlightAware ADS-B
Thu 03:58:15 AM 38.4819 -106.9350 143° Southeast 490 564 35,000  Level FlightAware ADS-B
Thu 03:58:24 AM 38.4667 -106.9170 137° Southeast 491 565 35,000  Level FlightAware ADS-B
Thu 03:58:34 AM 38.4515 -106.8960 133° Southeast 492 566 35,000  Level FlightAware ADS-B
Thu 03:58:48 AM 38.4310 -106.8640 129° Southeast 494 568 35,000  Level FlightAware ADS-B
Thu 03:59:20 AM 38.3872 -106.7920 128° Southeast 495 570 35,000  Level FlightAware ADS-B
Thu 03:59:54 AM 38.3384 -106.7140 129° Southeast 497 572 35,000  Level FlightAware ADS-B
Thu 04:00:26 AM 38.2925 -106.6400 128° Southeast 497 572 35,000  Level FlightAware ADS-B
Thu 04:00:57 AM 38.2484 -106.5680 128° Southeast 498 573 35,000  Level FlightAware ADS-B
Thu 04:01:27 AM 38.2057 -106.5000 129° Southeast 497 572 35,000  Level FlightAware ADS-B
Thu 04:01:58 AM 38.1619 -106.4300 128° Southeast 496 571 35,000  Level FlightAware ADS-B
Thu 04:02:32 AM 38.1140 -106.3530 128° Southeast 495 570 35,000  Level FlightAware ADS-B
Thu 04:03:02 AM 38.0713 -106.2850 129° Southeast 495 570 35,000  Level FlightAware ADS-B
Thu 04:03:32 AM 38.0284 -106.2170 129° Southeast 495 570 35,000  Level FlightAware ADS-B
Thu 04:04:02 AM 37.9852 -106.1480 128° Southeast 496 571 35,000  Level FlightAware ADS-B
Thu 04:04:33 AM 37.9417 -106.0790 129° Southeast 496 571 35,000  Level FlightAware ADS-B
Thu 04:05:03 AM 37.8983 -106.0100 129° Southeast 497 572 35,000  Level FlightAware ADS-B
Thu 04:05:36 AM 37.8512 -105.9360 129° Southeast 497 572 35,000  Level FlightAware ADS-B
Thu 04:06:06 AM 37.8073 -105.8670 129° Southeast 495 570 35,000  Level FlightAware ADS-B
Thu 04:06:37 AM 37.7633 -105.7970 128° Southeast 494 568 35,000  Level FlightAware ADS-B
Thu 04:07:07 AM 37.7203 -105.7300 129° Southeast 493 567 35,000  Level FlightAware ADS-B
Thu 04:07:37 AM 37.6773 -105.6630 129° Southeast 492 566 35,000  Level FlightAware ADS-B
Thu 04:08:07 AM 37.6346 -105.5960 129° Southeast 491 565 35,000  Level FlightAware ADS-B
Thu 04:08:38 AM 37.5908 -105.5270 129° Southeast 491 565 35,000  Level FlightAware ADS-B
Thu 04:09:08 AM 37.5477 -105.4600 129° Southeast 491 565 35,000  Level FlightAware ADS-B
Thu 04:09:44 AM 37.4972 -105.3820 129° Southeast 491 565 35,000  Level FlightAware ADS-B
Thu 04:10:24 AM 37.4391 -105.2920 129° Southeast 493 567 35,000  Level FlightAware ADS-B
Thu 04:10:55 AM 37.3954 -105.2240 129° Southeast 493 567 35,000  Level FlightAware ADS-B
Thu 04:11:25 AM 37.3516 -105.1570 129° Southeast 495 570 35,000  Level FlightAware ADS-B
Thu 04:11:55 AM 37.3083 -105.0900 129° Southeast 495 570 35,000  Level FlightAware ADS-B
Thu 04:12:25 AM 37.2643 -105.0220 129° Southeast 495 570 35,000  Level FlightAware ADS-B
Thu 04:13:14 AM 37.1939 -104.9150 130° Southeast 495 570 35,000  Level FlightAware ADS-B
Thu 04:17:08 AM 36.9610 -104.3230 116° Southeast 493 567 35,000  Level FlightAware ADS-B
Thu 04:18:29 AM 36.8826 -104.1150 115° Southeast 491 565 35,000  Level FlightAware ADS-B
Thu 04:19:06 AM 36.8452 -104.0200 116° Southeast 489 563 35,000  Level FlightAware ADS-B
Thu 04:20:07 AM 36.7931 -103.8872 116° Southeast 489 563 35,000  Level Denver Center
Thu 04:21:07 AM 36.7289 -103.7192 115° Southeast 484 557 35,000  Level Denver Center
Thu 04:22:08 AM 36.6725 -103.5733 116° Southeast 488 562 35,000  Level Denver Center
Thu 04:23:33 AM 36.5917 -103.3686 116° Southeast 489 563 35,000  Level Albuquerque Center
Thu 04:24:33 AM 36.5289 -103.2136 117° Southeast 494 568 35,000  Level Albuquerque Center
Thu 04:25:33 AM 36.4639 -103.0631 118° Southeast 491 565 35,000  Level Albuquerque Center
Thu 04:26:33 AM 36.3992 -102.9125 118° Southeast 489 563 35,000  Level Albuquerque Center
Thu 04:27:34 AM 36.3233 -102.7600 122° Southeast 485 558 35,000  Level Albuquerque Center
Thu 04:28:34 AM 36.2400 -102.6314 129° Southeast 482 555 35,000  Level Albuquerque Center
Thu 04:29:34 AM 36.1533 -102.5025 130° Southeast 484 557 35,000  Level Albuquerque Center
Thu 04:30:34 AM 36.0672 -102.3733 129° Southeast 486 559 35,000  Level Albuquerque Center
Thu 04:31:35 AM 35.9761 -102.2492 132° Southeast 487 560 35,000  Level Albuquerque Center
Thu 04:32:35 AM 35.8806 -102.1297 135° Southeast 489 563 35,000  Level Albuquerque Center
Thu 04:33:35 AM 35.7869 -102.0072 133° Southeast 489 563 35,000  Level Albuquerque Center
Thu 04:34:35 AM 35.6908 -101.8872 135° Southeast 491 565 35,000  Level Albuquerque Center
Thu 04:35:36 AM 35.5958 -101.7667 134° Southeast 491 565 35,000  Level Albuquerque Center
Thu 04:36:36 AM 35.5000 -101.6436 134° Southeast 487 560 35,000  Level Albuquerque Center
Thu 04:37:36 AM 35.4031 -101.5250 135° Southeast 490 564 35,000  Level Albuquerque Center
Thu 04:38:36 AM 35.3083 -101.4061 134° Southeast 489 563 35,000  Level Albuquerque Center
Thu 04:39:37 AM 35.2289 -101.3075 135° Southeast 488 562 35,000  Level Albuquerque Center
Thu 04:40:37 AM 35.1319 -101.1875 135° Southeast 492 566 35,000  Level Albuquerque Center
Thu 04:41:37 AM 35.0361 -101.0711 135° Southeast 486 559 35,000  Level Albuquerque Center
Thu 04:47:48 AM 34.4350 -100.3370 135° Southeast 479 551 35,000  Level FlightAware ADS-B
Thu 04:48:29 AM 34.3710 -100.2600 135° Southeast 478 550 35,000  Level FlightAware ADS-B
Thu 04:49:09 AM 34.3080 -100.1840 135° Southeast 475 547 35,000  Level FlightAware ADS-B
Thu 04:49:48 AM 34.2480 -100.1120 135° Southeast 475 547 35,000  Level FlightAware ADS-B
Thu 04:50:45 AM 34.1580 -100.0040 135° Southeast 472 543 35,000  Level FlightAware ADS-B
Thu 04:51:26 AM 34.0950 -99.9290 135° Southeast 470 541 35,000  Level FlightAware ADS-B
Thu 04:52:10 AM 34.0270 -99.8480 135° Southeast 468 539 35,000  Level FlightAware ADS-B
Thu 04:53:04 AM 33.9500 -99.7560 135° Southeast 467 537 35,000  Level FlightAware ADS-B
Thu 04:54:17 AM 33.8370 -99.6220 135° Southeast 470 541 35,000  Level FlightAware ADS-B
Thu 04:54:54 AM 33.7890 -99.5640 135° Southeast 470 541 35,000  Level FlightAware ADS-B
Thu 04:55:30 AM 33.7420 -99.5070 135° Southeast 470 541 35,000  Level FlightAware ADS-B
Thu 04:56:20 AM 33.6760 -99.4290 135° Southeast 470 541 35,000  Level FlightAware ADS-B
Thu 04:57:00 AM 33.5870 -99.3280 137° Southeast 473 544 35,000  Level FlightAware ADS-B
Thu 04:57:36 AM 33.5400 -99.2710 135° Southeast 473 544 35,000  Level FlightAware ADS-B
Thu 04:58:28 AM 33.4400 -99.1560 136° Southeast 478 550 35,000  Level FlightAware ADS-B
Thu 04:59:08 AM 33.3740 -99.0800 136° Southeast 479 551 35,000  Level FlightAware ADS-B
Thu 04:59:44 AM 33.3160 -99.0120 136° Southeast 480 552 35,000  Level FlightAware ADS-B
Thu 05:03:40 AM 32.9680 -98.6110 136° Southeast 470 541 35,000  Level FlightAware ADS-B
Thu 05:04:32 AM 32.8650 -98.4920 136° Southeast 470 541 35,000  Level FlightAware ADS-B
Thu 05:05:09 AM 32.8060 -98.4250 136° Southeast 471 542 35,000  Level FlightAware ADS-B
Thu 05:05:52 AM 32.7370 -98.3460 136° Southeast 473 544 35,000  Level FlightAware ADS-B
Thu 05:06:37 AM 32.6650 -98.2650 137° Southeast 473 544 35,000  Level FlightAware ADS-B
Thu 05:07:16 AM 32.6050 -98.1960 136° Southeast 474 545 35,000  Level FlightAware ADS-B
Thu 05:08:01 AM 32.5320 -98.1130 136° Southeast 474 545 35,000  Level FlightAware ADS-B
Thu 05:08:36 AM 32.4780 -98.0520 136° Southeast 473 544 35,000  Level FlightAware ADS-B
Thu 05:09:17 AM 32.4120 -97.9780 137° Southeast 473 544 35,000  Level FlightAware ADS-B
Thu 05:09:59 AM 32.3450 -97.9030 137° Southeast 471 542 35,000  Level FlightAware ADS-B
Thu 05:10:35 AM 32.2880 -97.8380 136° Southeast 471 542 35,000  Level FlightAware ADS-B
Thu 05:10:56 AM 32.2560 -97.8020 136° Southeast 471 542 35,000  Level FlightAware ADS-B
Thu 05:11:23 AM 32.2128 -97.7542 137° Southeast 470 541 35,000  Level FlightAware ADS-B
Thu 05:12:41 AM 32.0900 -97.6167 136° Southeast 469 540 35,000  Level FlightAware ADS-B
Thu 05:13:11 AM 32.0425 -97.5637 137° Southeast 468 539 35,000  Level FlightAware ADS-B
Thu 05:13:41 AM 31.9945 -97.5105 137° Southeast 468 539 35,000  Level FlightAware ADS-B
Thu 05:14:50 AM 31.8869 -97.3911 137° Southeast 465 535 35,000  Level FlightAware ADS-B
Thu 05:15:21 AM 31.8392 -97.3380 137° Southeast 466 536 35,000  Level FlightAware ADS-B
Thu 05:15:51 AM 31.7922 -97.2860 137° Southeast 465 535 35,000  Level FlightAware ADS-B
Thu 05:16:21 AM 31.7443 -97.2331 137° Southeast 467 537 35,000  Level FlightAware ADS-B
Thu 05:17:24 AM 31.6447 -97.1233 137° Southeast 468 539 35,000  Level FlightAware ADS-B
Thu 05:18:01 AM 31.5861 -97.0589 137° Southeast 469 540 35,000  Level FlightAware ADS-B
Thu 05:18:32 AM 31.5381 -97.0063 137° Southeast 470 541 35,000  Level FlightAware ADS-B
Thu 05:19:02 AM 31.4902 -96.9539 137° Southeast 469 540 35,000  Level FlightAware ADS-B
Thu 05:19:32 AM 31.4420 -96.9015 137° Southeast 467 537 35,000  Level FlightAware ADS-B
Thu 05:19:47 AM 31.4175 -96.8785 141° Southeast 468 539 35,000  Level FlightAware ADS-B
Thu 05:20:18 AM 31.3636 -96.8326 144° Southeast 468 539 35,000  Level FlightAware ADS-B
Thu 05:20:48 AM 31.3108 -96.7878 144° Southeast 467 537 35,000 -100 Level FlightAware ADS-B
Thu 05:21:18 AM 31.2579 -96.7428 144° Southeast 466 536 34,900 -1,121 Descending FlightAware ADS-B
Thu 05:22:19 AM 31.1526 -96.6533 144° Southeast 464 534 33,300 -2,176 Descending FlightAware ADS-B
Thu 05:22:49 AM 31.1001 -96.6086 144° Southeast 472 543 31,600 -3,533 Descending FlightAware ADS-B
Thu 05:23:49 AM 30.9916 -96.5166 144° Southeast 482 555 28,000 -3,333 Descending FlightAware ADS-B
Thu 05:24:19 AM 30.9375 -96.4709 144° Southeast 478 550 26,600 -2,736 Descending FlightAware ADS-B
Thu 05:26:51 AM 30.6755 -96.2509 144° Southeast 443 510 19,700 -2,703 Descending FlightAware ADS-B
Thu 05:27:21 AM 30.6254 -96.2091 144° Southeast 435 501 18,400 -2,600 Descending FlightAware ADS-B
Thu 05:27:51 AM 30.5770 -96.1686 144° Southeast 424 488 17,100 -2,526 Descending FlightAware ADS-B
Thu 05:29:15 AM 30.4498 -96.0626 144° Southeast 387 445 13,600 -2,452 Descending FlightAware ADS-B
Thu 05:29:46 AM 30.4065 -96.0256 144° Southeast 383 441 12,400 -2,044 Descending FlightAware ADS-B
Thu 05:30:46 AM 30.3211 -95.9546 145° Southeast 358 412 10,500 -1,451 Descending FlightAware ADS-B
Thu 05:31:17 AM 30.2814 -95.9221 145° Southeast 333 383 10,200 -517 Descending FlightAware ADS-B
Thu 05:31:44 AM 30.2486 -95.8949 144° Southeast 309 356 10,000 -973 Descending FlightAware ADS-B
Thu 05:32:31 AM 30.1964 -95.8516 144° Southeast 295 339 9,000 -1,313 Descending FlightAware ADS-B
Thu 05:32:48 AM 30.1773 -95.8357 144° Southeast 294 338 8,600 -1,532 Descending FlightAware ADS-B
Thu 05:33:18 AM 30.1438 -95.8081 145° Southeast 292 336 7,800 -1,435 Descending FlightAware ADS-B
Thu 05:33:34 AM 30.1269 -95.7942 145° Southeast 290 334 7,500 -1,355 Descending FlightAware ADS-B
Thu 05:33:49 AM 30.1105 -95.7807 145° Southeast 289 333 7,100 -1,600 Descending FlightAware ADS-B
Thu 05:34:04 AM 30.0937 -95.7668 144° Southeast 289 333 6,700 -1,548 Descending FlightAware ADS-B
Thu 05:34:20 AM 30.0769 -95.7529 144° Southeast 288 331 6,300 -1,548 Descending FlightAware ADS-B
Thu 05:34:35 AM 30.0607 -95.7396 145° Southeast 286 329 5,900 -1,500 Descending FlightAware ADS-B
Thu 05:34:52 AM 30.0426 -95.7247 145° Southeast 281 323 5,500 -1,273 Descending FlightAware ADS-B
Thu 05:35:08 AM 30.0261 -95.7110 144° Southeast 276 318 5,200 -968 Descending FlightAware ADS-B
Thu 05:35:23 AM 30.0101 -95.6978 144° Southeast 264 304 5,000 -500 Descending FlightAware ADS-B
Thu 05:35:32 AM 30.0021 -95.6902 141° Southeast 256 295 5,000  Level FlightAware ADS-B
Thu 05:35:36 AM 29.9991 -95.6863 132° Southeast 254 292 5,000 -750 Level FlightAware ADS-B
Thu 05:35:40 AM 29.9967 -95.6820 123° Southeast 252 290 4,900 -857 Descending FlightAware ADS-B
Thu 05:35:43 AM 29.9951 -95.6783 117° Southeast 251 289 4,900 -857 Level FlightAware ADS-B
Thu 05:35:47 AM 29.9936 -95.6734 109° East 250 288 4,800 -1,200 Descending FlightAware ADS-B
Thu 05:35:53 AM 29.9924 -95.6642 95° East 251 289 4,700 -1,500 Descending FlightAware ADS-B
Thu 05:35:59 AM 29.9924 -95.6568 90° East 253 291 4,500 -1,364 Descending FlightAware ADS-B
Thu 05:36:15 AM 29.9929 -95.6358 88° East 250 288 4,200 -857 Descending FlightAware ADS-B
Thu 05:36:48 AM 29.9929 -95.5925 90° East 235 270 3,800 -938 Descending FlightAware ADS-B
Thu 05:37:19 AM 29.9931 -95.5537 90° East 239 275 3,200 -1,149 Descending FlightAware ADS-B
Thu 05:37:35 AM 29.9931 -95.5336 90° East 235 270 2,900 -1,091 Descending FlightAware ADS-B
Thu 05:37:52 AM 29.9932 -95.5126 90° East 232 267 2,600 -1,273 Descending FlightAware ADS-B
Thu 05:38:08 AM 29.9933 -95.4927 90° East 228 262 2,200 -1,125 Descending FlightAware ADS-B
Thu 05:38:24 AM 29.9933 -95.4739 90° East 217 250 2,000 -1,091 Descending FlightAware ADS-B
Thu 05:38:41 AM 29.9933 -95.4551 90° East 207 238 1,600 -1,125 Descending FlightAware ADS-B
Thu 05:38:56 AM 29.9933 -95.4391 90° East 199 229 1,400 -938 Descending FlightAware ADS-B
Thu 05:39:13 AM 29.9934 -95.4225 90° East 179 206 1,100 -909 Descending FlightAware ADS-B
Thu 05:39:29 AM 29.9934 -95.4085 90° East 170 196 900 -889 Descending FlightAware ADS-B
Thu 05:39:40 AM 29.9934 -95.3984 90° East 166 191 700 -889 Descending FlightAware ADS-B
Thu 05:39:56 AM 29.9933 -95.3849 90° East 163 188 500 -818 Descending FlightAware ADS-B
Thu 05:40:02 AM 29.9933 -95.3792 90° East 162 186 400 -783 Descending FlightAware ADS-B
Thu 05:40:19 AM 29.9934 -95.3646 90° East 161 185 200 -706 Descending FlightAware ADS-B

Login

Don't have an account? Register now (free) for customized features, flight alerts, and more!